Atlantic - Newfoundland: Past 24 Hour Conditions

 

St. John's Int'l Airport

06:30 PM NDT 16 September 2014
This table is a summary of hourly weather conditions for the past 24 hours.
Date / Time
(NDT)
Wind(knots) Conditions Visibility(km) Pressure(kPa) Air tempC) Relative humidity(%) Dew pointC)
16 September 2014
18:30 WSW 9 Mostly Cloudy 24 101.4 13 70 8
17:30 W 9 Mostly Cloudy 24 101.3 14 65 7
16:30 WNW 11 Mostly Cloudy 24 101.3 15 58 6
15:30 WNW 16 Mostly Cloudy 24 101.3 15 58 7
14:30 W 11 gust 17 Mostly Cloudy 24 101.3 14 69 9
13:30 WNW 9 gust 18 Mostly Cloudy 24 101.3 14 72 9
12:30 WSW 9 Mostly Cloudy 24 101.3 14 78 10
11:30 WSW 13 Mostly Cloudy 24 101.3 14 74 10
10:30 W 9 Mostly Cloudy 24 101.3 14 81 11
9:30 WNW 9 Mostly Cloudy 24 101.3 13 81 10
8:30 WNW 9 Partly Cloudy 24 101.3 12 92 11
7:30 W 8 Mostly Cloudy 24 101.3 12 97 11
6:30 WNW 10 gust 19 Light Rainshower 10 101.2 11 98 11
5:30 WNW 9 Light Drizzle 19 101.2 11 99 11
4:30 W 9 Cloudy 13 101.2 10 100 10
3:30 W 12 Light Drizzle 4 101.2 10 99 10
2:30 WNW 14 Light Rain 3 101.2 10 99 10
1:30 NW 11 Light Drizzle 5 101.2 11 100 11
0:30 NW 10 Light Drizzle 2 101.2 11 100 11
15 September 2014
23:30 WNW 14 Light Drizzle 3 101.2 11 100 11
22:30 NW 8 Light Drizzle 2 101.3 12 100 12
21:30 NW 6 Light Drizzle 1 101.3 12 100 12
20:30 NNW 7 Light Drizzle 0.8 101.3 12 100 12
19:30 NNE 6 Light Drizzle 0.4 101.3 12 100 12
18:30 NNE 6 Light Drizzle 0.2 101.2 12 100 12
 
Map of Atlantic - Newfoundland marine weather areas Southwestern Grand Banks - 44138 Banquereau - 44139 Tail of the Bank - 44140 Nickerson Bank - 44251 Northeast Burgeo Bank - 44255 Blanc-Sablon Airport Cap Whittle Chevery Natashquan Airport Heath Point Miscou Island Grand Étang Ingonish Beach North Mountain St.Paul Island J.A. Douglas McCurdy Sydney Airport Charlottetown Airport East Point North Cape Argentia Bonavista Burgeo Cape Race Corner Brook Daniel's Harbour Englee Ferolle Point La Scie Port aux Basques Rocky Harbour Sagona Island St. Anthony Airport St. John's Int'l Airport St. Lawrence Stephenville Airport Twillingate Winterland Wreckhouse Cartwright Airport Mary's Harbour Grates Cove Pool's Island Marticot Island Long Pond Îles de la Madeleine Airport
Legend: buoyBuoy land stationLand Station